Flight Track Log - Related Links

Times and Time Zones

All times are in EDT time to prevent confusion due to time zone crossing. See the JBU960 flight status page for this flight to view local times or setup timezone preferences in your user account.

Time Position Orientation Groundspeed Altitude Reporting Facility
EDT Latitude Longitude Course Direction KTS MPH feet Rate Location/Type
Sun 02:34:00 AM 18.3865 -76.8299 355° North  Level FlightAware Approximate
Sun 02:35:00 AM 18.4992 -76.8405 355° North  Level FlightAware Approximate
Sun 02:36:00 AM 18.6119 -76.8512 355° North  Level FlightAware Approximate
Sun 02:37:00 AM 18.7246 -76.8618 355° North  Level FlightAware Approximate
Sun 02:38:00 AM 18.8374 -76.8725 355° North  Level FlightAware Approximate
Sun 02:39:00 AM 18.9501 -76.8832 355° North  Level FlightAware Approximate
Sun 02:40:00 AM 19.0628 -76.8939 355° North  Level FlightAware Approximate
Sun 02:41:00 AM 19.1755 -76.9046 355° North  Level FlightAware Approximate
Sun 02:42:00 AM 19.2882 -76.9154 355° North  Level FlightAware Approximate
Sun 02:43:00 AM 19.4009 -76.9261 355° North  Level FlightAware Approximate
Sun 02:44:00 AM 19.5136 -76.9369 355° North  Level FlightAware Approximate
Sun 02:45:00 AM 19.6263 -76.9476 355° North  Level FlightAware Approximate
Sun 02:46:00 AM 19.7390 -76.9584 355° North  Level FlightAware Approximate
Sun 02:47:00 AM 19.8517 -76.9692 355° North  Level FlightAware Approximate
Sun 02:48:00 AM 19.9644 -76.9801 355° North  Level FlightAware Approximate
Sun 02:49:00 AM 20.0771 -76.9909 355° North  Level FlightAware Approximate
Sun 02:50:00 AM 20.1898 -77.0018 355° North  Level FlightAware Approximate
Sun 02:51:00 AM 20.3025 -77.0126 355° North  Level FlightAware Approximate
Sun 02:52:00 AM 20.4152 -77.0235 355° North  Level FlightAware Approximate
Sun 02:53:00 AM 20.5279 -77.0344 355° North  Level FlightAware Approximate
Sun 02:54:00 AM 20.6198 -77.0443 354° North  Level FlightAware Approximate
Sun 02:55:00 AM 20.7324 -77.0563 354° North  Level FlightAware Approximate
Sun 02:56:00 AM 20.8450 -77.0683 354° North  Level FlightAware Approximate
Sun 02:57:00 AM 20.9576 -77.0803 354° North  Level FlightAware Approximate
Sun 02:58:00 AM 21.0702 -77.0923 354° North  Level FlightAware Approximate
Sun 02:59:00 AM 21.1828 -77.1043 354° North  Level FlightAware Approximate
Sun 03:00:00 AM 21.2954 -77.1164 354° North  Level FlightAware Approximate
Sun 03:01:00 AM 21.4080 -77.1285 354° North  Level FlightAware Approximate
Sun 03:02:00 AM 21.5206 -77.1406 354° North  Level FlightAware Approximate
Sun 03:03:00 AM 21.6332 -77.1527 354° North  Level FlightAware Approximate
Sun 03:04:00 AM 21.7458 -77.1648 354° North  Level FlightAware Approximate
Sun 03:05:00 AM 21.8584 -77.1770 354° North  Level FlightAware Approximate
Sun 03:06:00 AM 21.9710 -77.1892 354° North  Level FlightAware Approximate
Sun 03:07:00 AM 22.0836 -77.2014 354° North  Level FlightAware Approximate
Sun 03:08:00 AM 22.1962 -77.2136 354° North  Level FlightAware Approximate
Sun 03:09:00 AM 22.3088 -77.2258 354° North  Level FlightAware Approximate
Sun 03:10:00 AM 22.4214 -77.2381 354° North  Level FlightAware Approximate
Sun 03:11:00 AM 22.5340 -77.2504 354° North  Level FlightAware Approximate
Sun 03:12:00 AM 22.6465 -77.2626 354° North  Level FlightAware Approximate
Sun 03:13:00 AM 22.7592 -77.2739 355° North  Level FlightAware Approximate
Sun 03:14:00 AM 22.8719 -77.2847 355° North  Level FlightAware Approximate
Sun 03:14:27 AM 22.7672 -77.3117 355° North 451 519 36,000  Level Miami Center
Sun 03:15:00 AM 22.9847 -77.2955 355° North  Level FlightAware Approximate
Sun 03:15:28 AM 22.8842 -77.3189 357° North 446 513 36,000  Level Miami Center
Sun 03:16:00 AM 23.0974 -77.3064 355° North  Level FlightAware Approximate
Sun 03:16:30 AM 23.0033 -77.3261 357° North 432 497 36,000  Level Miami Center
Sun 03:17:00 AM 23.2101 -77.3172 355° North  Level FlightAware Approximate
Sun 03:17:27 AM 23.1244 -77.3356 356° North 427 491 36,000  Level Miami Center
Sun 03:18:00 AM 23.3228 -77.3280 355° North  Level FlightAware Approximate
Sun 03:18:27 AM 23.2436 -77.3428 357° North 422 486 36,000  Level Miami Center
Sun 03:19:00 AM 23.4355 -77.3389 355° North  Level FlightAware Approximate
Sun 03:19:27 AM 23.3647 -77.3500 357° North 422 486 36,000  Level Miami Center
Sun 03:20:27 AM 23.4797 -77.3572 357° North 422 486 36,000  Level Miami Center
Sun 03:21:28 AM 23.6028 -77.3644 357° North 422 486 36,000  Level Miami Center
Sun 03:22:27 AM 23.7178 -77.3672 359° North 422 486 36,000  Level Miami Center
Sun 03:23:27 AM 23.8369 -77.3814 354° North 422 486 36,000  Level Miami Center
Sun 03:24:27 AM 23.9561 -77.3842 359° North 422 486 36,000  Level Miami Center
Sun 03:25:28 AM 24.0772 -77.3914 357° North 422 486 36,000  Level Miami Center
Sun 03:26:30 AM 24.1942 -77.3989 357° North 422 486 36,000  Level Miami Center
Sun 03:27:27 AM 24.3133 -77.4061 357° North 422 486 36,000  Level Miami Center
Sun 03:28:28 AM 24.4325 -77.4111 358° North 422 486 36,000  Level Miami Center
Sun 03:29:28 AM 24.5494 -77.4186 357° North 422 486 36,000  Level Miami Center
Sun 03:30:30 AM 24.6686 -77.4261 357° North 422 486 36,000  Level Miami Center
Sun 03:31:27 AM 24.7875 -77.4333 357° North 422 486 36,000  Level Miami Center
Sun 03:32:30 AM 24.8964 -77.4383 358° North 415 478 36,000  Level Miami Center
Sun 03:33:27 AM 25.0133 -77.4506 355° North 429 494 36,000 51 Level Miami Center
Sun 03:34:27 AM 25.1428 -77.4533 359° North 440 506 36,100 390 Climbing Miami Center
Sun 03:35:30 AM 25.2619 -77.4608 357° North 445 512 36,800 450 Climbing Miami Center
Sun 03:36:27 AM 25.3769 -77.4706 356° North 426 490 37,000 103 Climbing Miami Center
Sun 03:37:27 AM 25.5042 -77.4781 357° North 420 483 37,000  Level Miami Center
Sun 03:38:27 AM 25.6233 -77.4833 358° North 420 483 37,000  Level Miami Center
Sun 03:39:28 AM 25.7300 -77.4908 356° North 420 483 37,000  Level Miami Center
Sun 03:40:27 AM 25.8447 -77.5006 356° North 420 483 37,000  Level Miami Center
Sun 03:41:27 AM 25.9658 -77.5083 357° North 420 483 37,000  Level Miami Center
Sun 03:42:27 AM 26.0831 -77.5133 358° North 420 483 37,000  Level Miami Center
Sun 03:43:27 AM 26.2042 -77.5233 356° North 425 489 37,000  Level Miami Center
Sun 03:44:27 AM 26.3211 -77.5264 359° North 425 489 37,000  Level Miami Center
Sun 03:45:29 AM 26.4358 -77.5339 357° North 425 489 37,000  Level Miami Center
Sun 03:46:27 AM 26.5550 -77.5417 357° North 425 489 37,000  Level Miami Center
Sun 03:47:29 AM 26.6742 -77.5539 355° North 425 489 37,000  Level Miami Center
Sun 03:52:40 AM 27.2930 -77.5860 355° North 415 478 37,000  Level FlightAware ADS-B
Sun 03:53:25 AM 27.3700 -77.5900 357° North 415 478 37,000  Level FlightAware ADS-B
Sun 03:54:01 AM 27.4290 -77.5940 357° North 415 478 37,000  Level FlightAware ADS-B
Sun 03:54:50 AM 27.5090 -77.5980 357° North 415 478 37,000  Level FlightAware ADS-B
Sun 03:55:27 AM 27.5690 -77.6020 357° North 415 478 37,000  Level FlightAware ADS-B
Sun 03:56:15 AM 27.6470 -77.6060 357° North 415 478 37,000  Level FlightAware ADS-B
Sun 03:56:51 AM 27.7060 -77.6100 357° North 415 478 37,000  Level FlightAware ADS-B
Sun 03:57:39 AM 27.7840 -77.6150 357° North 415 478 37,000  Level FlightAware ADS-B
Sun 03:58:13 AM 27.8390 -77.6180 357° North 415 478 37,000  Level FlightAware ADS-B
Sun 03:59:01 AM 27.9180 -77.6220 357° North 415 478 37,000  Level FlightAware ADS-B
Sun 03:59:40 AM 27.9810 -77.6260 357° North 415 478 37,000  Level FlightAware ADS-B
Sun 03:59:52 AM 28.0010 -77.6270 357° North 415 478 37,000  Level FlightAware ADS-B
Sun 04:01:21 AM 28.1460 -77.6360 357° North 415 478 37,000  Level FlightAware ADS-B
Sun 04:01:57 AM 28.2040 -77.6400 357° North 415 478 37,000  Level FlightAware ADS-B
Sun 04:02:44 AM 28.2810 -77.6440 357° North 415 478 37,000  Level FlightAware ADS-B
Sun 04:03:28 AM 28.5633 -77.6600 357° North 418 481 37,000  Level Miami Center
Sun 04:04:29 AM 28.6886 -77.6681 357° North 428 493 37,000  Level Miami Center
Sun 04:05:30 AM 28.8033 -77.6733 358° North 422 486 37,000  Level Miami Center
Sun 04:06:29 AM 28.9203 -77.6792 358° North 416 479 37,000 -50 Level Miami Center
Sun 04:07:30 AM 29.0475 -77.6894 356° North 432 497 36,900  Descending Miami Center
Sun 04:08:27 AM 29.1767 -77.6928 359° North 439 505 37,000 51 Climbing Miami Center
Sun 04:09:27 AM 29.2956 -77.7008 357° North 432 497 37,000 -50 Level Miami Center
Sun 04:10:27 AM 29.4103 -77.7042 359° North 432 497 36,900 -49 Descending Miami Center
Sun 04:11:30 AM 29.5333 -77.7122 357° North 442 509 36,900 29 Level Miami Center
Sun 04:13:51 AM 29.8131 -77.7203 359° North 441 507 37,000 30 Climbing Jacksonville Center
Sun 04:14:51 AM 29.9431 -77.7325 355° North 447 514 37,000  Level Jacksonville Center
Sun 04:15:51 AM 30.0492 -77.7292 North 424 488 37,000 -50 Level Jacksonville Center
Sun 04:16:51 AM 30.1769 -77.7417 355° North 438 504 36,900 -50 Descending Jacksonville Center
Sun 04:17:51 AM 30.2936 -77.7353 North 438 504 36,900  Level Jacksonville Center
Sun 04:18:51 AM 30.4128 -77.7408 358° North 438 504 36,900 50 Level Jacksonville Center
Sun 04:19:51 AM 30.5322 -77.7539 355° North 438 504 37,000 50 Climbing Jacksonville Center
Sun 04:20:51 AM 30.6517 -77.7594 358° North 432 497 37,000  Level Jacksonville Center
Sun 04:21:51 AM 30.7708 -77.7650 358° North 427 491 37,000  Level Jacksonville Center
Sun 04:22:51 AM 30.8919 -77.7706 358° North 427 491 37,000 -50 Level Jacksonville Center
Sun 04:23:51 AM 31.0094 -77.7811 356° North 427 491 36,900  Descending Jacksonville Center
Sun 04:24:51 AM 31.1308 -77.7917 356° North 427 491 37,000 16 Climbing Jacksonville Center
Sun 04:30:07 AM 31.7710 -77.8260 356° North 434 499 37,000  Level FlightAware ADS-B
Sun 04:30:46 AM 31.8380 -77.8310 356° North 434 499 37,000  Level FlightAware ADS-B
Sun 04:31:23 AM 31.9010 -77.8340 358° North 434 499 37,000  Level FlightAware ADS-B
Sun 04:32:09 AM 31.9790 -77.8390 357° North 434 499 37,000  Level FlightAware ADS-B
Sun 04:32:57 AM 32.0610 -77.8440 357° North 434 499 37,000  Level FlightAware ADS-B
Sun 04:33:33 AM 32.1230 -77.8480 357° North 434 499 37,000  Level FlightAware ADS-B
Sun 04:34:10 AM 32.1860 -77.8520 357° North 434 499 37,000  Level FlightAware ADS-B
Sun 04:34:47 AM 32.2490 -77.8560 357° North 434 499 37,000  Level FlightAware ADS-B
Sun 04:35:35 AM 32.3310 -77.8610 357° North 434 499 37,000  Level FlightAware ADS-B
Sun 04:36:11 AM 32.3920 -77.8650 357° North 434 499 37,000  Level FlightAware ADS-B
Sun 04:36:59 AM 32.4740 -77.8700 357° North 434 499 37,000  Level FlightAware ADS-B
Sun 04:37:35 AM 32.5350 -77.8740 357° North 434 499 37,000  Level FlightAware ADS-B
Sun 04:38:20 AM 32.6120 -77.8790 357° North 434 499 37,000  Level FlightAware ADS-B
Sun 04:38:56 AM 32.6730 -77.8820 358° North 434 499 37,000  Level FlightAware ADS-B
Sun 04:39:47 AM 32.7600 -77.8880 357° North 434 499 37,000  Level FlightAware ADS-B
Sun 04:45:41 AM 33.6100 -77.4880 21° North 435 501 37,000  Level FlightAware ADS-B
Sun 04:46:26 AM 33.6980 -77.4480 21° North 435 501 37,000  Level FlightAware ADS-B
Sun 04:47:36 AM 33.7520 -77.4240 20° North 434 499 37,000  Level FlightAware ADS-B
Sun 04:48:22 AM 33.9130 -77.3500 21° North 435 501 37,000  Level FlightAware ADS-B
Sun 04:49:07 AM 33.9260 -77.3440 21° North 436 502 37,000  Level FlightAware ADS-B
Sun 04:49:48 AM 33.9920 -77.3150 20° North 436 502 37,000  Level FlightAware ADS-B
Sun 04:50:24 AM 34.0500 -77.2900 20° North 436 502 37,000  Level FlightAware ADS-B
Sun 04:51:26 AM 34.1500 -77.2460 20° North 436 502 37,000  Level FlightAware ADS-B
Sun 04:52:02 AM 34.2080 -77.2200 20° North 436 502 37,000  Level FlightAware ADS-B
Sun 04:53:02 AM 34.3050 -77.1770 20° North 436 502 37,000  Level FlightAware ADS-B
Sun 04:53:38 AM 34.3630 -77.1520 20° North 436 502 37,000  Level FlightAware ADS-B
Sun 04:54:26 AM 34.4400 -77.1180 20° North 436 502 37,000  Level FlightAware ADS-B
Sun 04:55:14 AM 34.5180 -77.0840 20° North 436 502 37,000  Level FlightAware ADS-B
Sun 04:55:51 AM 34.5770 -77.0570 21° North 436 502 37,000  Level FlightAware ADS-B
Sun 04:56:28 AM 34.6370 -77.0310 20° North 436 502 37,000  Level FlightAware ADS-B
Sun 04:57:14 AM 34.7110 -76.9980 20° North 436 502 37,000  Level FlightAware ADS-B
Sun 04:58:02 AM 34.7880 -76.9640 20° North 436 502 37,000  Level FlightAware ADS-B
Sun 04:58:36 AM 34.8430 -76.9400 20° North 436 502 37,000  Level FlightAware ADS-B
Sun 04:59:50 AM 35.1906 -76.7536 20° North 429 494 37,000  Level Washington Center
Sun 05:00:50 AM 35.3039 -76.7017 21° North 434 499 37,000  Level Washington Center
Sun 05:01:47 AM 35.4147 -76.6497 21° North 434 499 37,000  Level Washington Center
Sun 05:07:33 AM 36.0890 -76.3240 21° North 442 509 37,000  Level FlightAware ADS-B
Sun 05:08:17 AM 36.1620 -76.2890 21° North 443 510 37,000  Level FlightAware ADS-B
Sun 05:08:54 AM 36.2410 -76.2500 22° Northeast 443 510 37,000  Level FlightAware ADS-B
Sun 05:09:41 AM 36.3180 -76.2130 21° North 436 502 37,000  Level FlightAware ADS-B
Sun 05:10:19 AM 36.4067 -76.1689 22° Northeast 443 510 37,000  Level FlightAware ADS-B
Sun 05:10:50 AM 36.4651 -76.1403 21° North 443 510 37,000  Level FlightAware ADS-B
Sun 05:11:20 AM 36.5225 -76.1122 21° North 443 510 37,000  Level FlightAware ADS-B
Sun 05:11:50 AM 36.5807 -76.0836 22° Northeast 441 507 37,000  Level FlightAware ADS-B
Sun 05:12:22 AM 36.6407 -76.0540 22° Northeast 440 506 37,000  Level FlightAware ADS-B
Sun 05:12:53 AM 36.6991 -76.0252 22° Northeast 440 506 37,000  Level FlightAware ADS-B
Sun 05:13:23 AM 36.7561 -75.9970 22° Northeast 440 506 37,000  Level FlightAware ADS-B
Sun 05:13:54 AM 36.8141 -75.9683 22° Northeast 439 505 37,000  Level FlightAware ADS-B
Sun 05:14:24 AM 36.8714 -75.9398 22° Northeast 439 505 37,000  Level FlightAware ADS-B
Sun 05:14:54 AM 36.9286 -75.9114 22° Northeast 438 504 37,000  Level FlightAware ADS-B
Sun 05:15:25 AM 36.9855 -75.8832 22° Northeast 438 504 37,000  Level FlightAware ADS-B
Sun 05:16:08 AM 37.0674 -75.8424 22° Northeast 437 503 37,000  Level FlightAware ADS-B
Sun 05:16:38 AM 37.1239 -75.8141 22° Northeast 437 503 37,000  Level FlightAware ADS-B
Sun 05:17:47 AM 37.2500 -75.7490 22° Northeast 435 501 37,000  Level FlightAware ADS-B
Sun 05:18:22 AM 37.3174 -75.7173 21° North 437 503 37,000  Level FlightAware ADS-B
Sun 05:18:52 AM 37.3751 -75.6886 22° Northeast 435 501 37,000  Level FlightAware ADS-B
Sun 05:19:23 AM 37.4321 -75.6594 22° Northeast 433 498 37,000  Level FlightAware ADS-B
Sun 05:19:53 AM 37.4879 -75.6309 22° Northeast 431 496 37,000  Level FlightAware ADS-B
Sun 05:20:24 AM 37.5445 -75.6020 22° Northeast 431 496 37,000  Level FlightAware ADS-B
Sun 05:20:55 AM 37.6012 -75.5732 22° Northeast 430 495 37,000  Level FlightAware ADS-B
Sun 05:21:26 AM 37.6582 -75.5443 22° Northeast 430 495 37,000  Level FlightAware ADS-B
Sun 05:21:56 AM 37.7136 -75.5162 22° Northeast 430 495 37,000  Level FlightAware ADS-B
Sun 05:22:27 AM 37.7690 -75.4880 22° Northeast 421 484 37,000  Level FlightAware ADS-B
Sun 05:23:13 AM 37.8530 -75.4450 22° Northeast 421 484 37,000  Level FlightAware ADS-B
Sun 05:23:26 AM 37.8802 -75.4314 22° Northeast 429 494 37,000  Level FlightAware ADS-B
Sun 05:23:56 AM 37.9355 -75.4032 22° Northeast 428 493 37,000  Level FlightAware ADS-B
Sun 05:24:26 AM 37.9909 -75.3749 22° Northeast 428 493 37,000  Level FlightAware ADS-B
Sun 05:24:57 AM 38.0464 -75.3464 22° Northeast 428 493 37,000  Level FlightAware ADS-B
Sun 05:25:27 AM 38.1021 -75.3178 22° Northeast 428 493 37,000  Level FlightAware ADS-B
Sun 05:26:02 AM 38.1656 -75.2852 22° Northeast 430 495 37,000  Level FlightAware ADS-B
Sun 05:26:32 AM 38.2221 -75.2561 22° Northeast 430 495 37,000  Level FlightAware ADS-B
Sun 05:27:03 AM 38.2781 -75.2272 22° Northeast 429 494 37,000  Level FlightAware ADS-B
Sun 05:27:33 AM 38.3337 -75.1985 22° Northeast 429 494 37,000  Level FlightAware ADS-B
Sun 05:28:25 AM 38.4289 -75.1492 22° Northeast 429 494 37,000  Level FlightAware ADS-B
Sun 05:28:55 AM 38.4852 -75.1200 22° Northeast 428 493 37,000  Level FlightAware ADS-B
Sun 05:29:26 AM 38.5412 -75.0909 22° Northeast 428 493 37,000  Level FlightAware ADS-B
Sun 05:29:56 AM 38.5962 -75.0621 22° Northeast 429 494 37,000  Level FlightAware ADS-B
Sun 05:30:26 AM 38.6516 -75.0332 22° Northeast 429 494 37,000  Level FlightAware ADS-B
Sun 05:30:57 AM 38.7080 -75.0037 22° Northeast 429 494 37,000  Level FlightAware ADS-B
Sun 05:31:28 AM 38.7655 -74.9737 22° Northeast 430 495 37,000 -871 Level FlightAware ADS-B
Sun 05:31:59 AM 38.8220 -74.9441 22° Northeast 431 496 36,100 -1,645 Descending FlightAware ADS-B
Sun 05:32:30 AM 38.8787 -74.9143 22° Northeast 424 488 35,300 -2,066 Descending FlightAware ADS-B
Sun 05:33:00 AM 38.9336 -74.8854 22° Northeast 429 494 34,000 -2,600 Descending FlightAware ADS-B
Sun 05:33:30 AM 38.9895 -74.8560 22° Northeast 435 501 32,700 -2,640 Descending FlightAware ADS-B
Sun 05:33:50 AM 39.0268 -74.8362 22° Northeast 438 504 31,800 -2,684 Descending FlightAware ADS-B
Sun 05:34:08 AM 39.0596 -74.8158 26° Northeast 442 509 31,000 -2,780 Descending FlightAware ADS-B
Sun 05:34:31 AM 39.1003 -74.7850 30° Northeast 447 514 29,900 -2,809 Descending FlightAware ADS-B
Sun 05:34:55 AM 39.1405 -74.7490 35° Northeast 452 520 28,800 -2,444 Descending FlightAware ADS-B
Sun 05:35:25 AM 39.1889 -74.6977 39° Northeast 449 517 27,700 -2,200 Descending FlightAware ADS-B
Sun 05:35:55 AM 39.2371 -74.6464 39° Northeast 448 516 26,600 -2,300 Descending FlightAware ADS-B
Sun 05:36:25 AM 39.2855 -74.5946 40° Northeast 447 514 25,400 -2,361 Descending FlightAware ADS-B
Sun 05:36:56 AM 39.3340 -74.5421 40° Northeast 447 514 24,200 -2,323 Descending FlightAware ADS-B
Sun 05:37:27 AM 39.3824 -74.4895 40° Northeast 446 513 23,000 -2,323 Descending FlightAware ADS-B
Sun 05:37:58 AM 39.4310 -74.4366 40° Northeast 444 511 21,800 -2,361 Descending FlightAware ADS-B
Sun 05:38:28 AM 39.4785 -74.3847 40° Northeast 443 510 20,600 -2,400 Descending FlightAware ADS-B
Sun 05:38:58 AM 39.5257 -74.3330 40° Northeast 438 504 19,400 -2,300 Descending FlightAware ADS-B
Sun 05:39:28 AM 39.5714 -74.2830 40° Northeast 427 491 18,300 -2,066 Descending FlightAware ADS-B
Sun 05:39:59 AM 39.6169 -74.2331 40° Northeast 418 481 17,300 -1,672 Descending FlightAware ADS-B
Sun 05:40:29 AM 39.6602 -74.1853 40° Northeast 402 463 16,600 -1,400 Descending FlightAware ADS-B
Sun 05:40:59 AM 39.7020 -74.1394 40° Northeast 390 449 15,900 -1,500 Descending FlightAware ADS-B
Sun 05:41:29 AM 39.7434 -74.0939 40° Northeast 387 445 15,100 -1,400 Descending FlightAware ADS-B
Sun 05:41:59 AM 39.7841 -74.0490 40° Northeast 381 438 14,500 -1,333 Descending FlightAware ADS-B
Sun 05:42:32 AM 39.8280 -74.0004 40° Northeast 382 440 13,700 -1,467 Descending FlightAware ADS-B
Sun 05:42:44 AM 39.8455 -73.9834 37° Northeast 378 435 13,400 -1,333 Descending FlightAware ADS-B
Sun 05:42:50 AM 39.8533 -73.9771 32° Northeast 375 432 13,300 -1,833 Descending FlightAware ADS-B
Sun 05:43:20 AM 39.8988 -73.9444 29° Northeast 375 432 12,300 -1,900 Descending FlightAware ADS-B
Sun 05:43:50 AM 39.9454 -73.9118 28° Northeast 363 418 11,400 -1,377 Descending FlightAware ADS-B
Sun 05:44:21 AM 39.9893 -73.8807 28° Northeast 344 396 10,900 -508 Descending FlightAware ADS-B
Sun 05:44:49 AM 40.0267 -73.8542 28° Northeast 316 364 10,900 -200 Level FlightAware ADS-B
Sun 05:45:21 AM 40.0667 -73.8243 30° Northeast 307 353 10,700 -1,000 Descending FlightAware ADS-B
Sun 05:45:55 AM 40.1078 -73.7931 30° Northeast 305 351 9,800 -1,469 Descending FlightAware ADS-B
Sun 05:46:10 AM 40.1266 -73.7790 30° Northeast 302 348 9,500 -1,400 Descending FlightAware ADS-B
Sun 05:46:25 AM 40.1449 -73.7654 30° Northeast 299 344 9,100 -1,548 Descending FlightAware ADS-B
Sun 05:46:41 AM 40.1632 -73.7518 30° Northeast 299 344 8,700 -1,500 Descending FlightAware ADS-B
Sun 05:46:57 AM 40.1823 -73.7377 29° Northeast 298 343 8,300 -1,355 Descending FlightAware ADS-B
Sun 05:47:12 AM 40.2000 -73.7246 29° Northeast 293 337 8,000 -1,400 Descending FlightAware ADS-B
Sun 05:47:27 AM 40.2179 -73.7116 29° Northeast 295 339 7,600 -1,742 Descending FlightAware ADS-B
Sun 05:47:43 AM 40.2372 -73.6977 29° Northeast 297 342 7,100 -1,688 Descending FlightAware ADS-B
Sun 05:47:59 AM 40.2573 -73.6832 29° Northeast 297 342 6,700 -1,500 Descending FlightAware ADS-B
Sun 05:48:15 AM 40.2762 -73.6696 29° Northeast 293 337 6,300 -1,355 Descending FlightAware ADS-B
Sun 05:48:30 AM 40.2939 -73.6570 28° Northeast 289 333 6,000 -1,200 Descending FlightAware ADS-B
Sun 05:48:45 AM 40.3116 -73.6444 28° Northeast 286 329 5,700 -1,355 Descending FlightAware ADS-B
Sun 05:49:01 AM 40.3296 -73.6317 28° Northeast 286 329 5,300 -1,538 Descending FlightAware ADS-B
Sun 05:49:24 AM 40.3566 -73.6124 29° Northeast 283 326 4,700 -1,538 Descending FlightAware ADS-B
Sun 05:49:40 AM 40.3748 -73.5993 29° Northeast 281 323 4,300 -1,091 Descending FlightAware ADS-B
Sun 05:49:57 AM 40.3935 -73.5858 29° Northeast 276 318 4,100 -727 Descending FlightAware ADS-B
Sun 05:50:13 AM 40.4109 -73.5734 28° Northeast 265 305 3,900 -610 Descending FlightAware ADS-B
Sun 05:50:56 AM 40.4540 -73.5420 29° Northeast 242 278 3,500 -658 Descending FlightAware ADS-B
Sun 05:51:26 AM 40.4825 -73.5210 29° Northeast 240 276 3,100 -652 Descending FlightAware ADS-B
Sun 05:51:42 AM 40.4973 -73.5148 18° North 240 276 3,000 -308 Descending FlightAware ADS-B
Sun 05:52:05 AM 40.5166 -73.5237 341° North 190 219 2,900 -122 Descending FlightAware ADS-B
Sun 05:52:31 AM 40.5362 -73.5385 330° Northwest 188 216 2,900  Level FlightAware ADS-B
Sun 05:52:46 AM 40.5463 -73.5480 324° Northwest 187 215 2,900  Level FlightAware ADS-B
Sun 05:53:20 AM 40.5620 -73.5800 303° West 184 212 2,900 -455 Level FlightAware ADS-B
Sun 05:53:52 AM 40.5760 -73.6100 302° West 182 209 2,400 -938 Descending FlightAware ADS-B

Login

Don't have an account? Register now (free) for customized features, flight alerts, and more!